Hastings (NZHS)

Aerodrome — Elev 72
New Zealand
S039.38.48.001 E176.46.00.998
Loading chart...

Current Weather

NZHS 270900Z 16006KT 20KM BKN042 BKN055 16/14 Q1009 RMK AUTO NZNR VATSIM USE ONLY

Published 23 minutes ago

Airport Activity

Loading chart...
Loading chart...

Standard ATC Positions

CallsignRadio Name / Freq / Voice Room / TypeFrequencyType
NZOH_CTR Ohakea Control
126.200
nzoh_ctr
126.200
NZNR_TWR Napier Tower
124.800
nznr_twr
124.800
NZOH_GND Ohakea Ground
122.100
nzoh_gnd
122.100
NZPM_GND Palmerston Ground
121.700
nzpm_gnd
121.700
UNICOM NZZC UNICOM
122.800
unicom_nzzc
122.800

Event ATC Positions

This airport has additional control positions that are designated for use only during major events.
These non-standard positions must not be staffed unless specifically activated by the VATNZ Airspace Director as part of an official VATNZ event.
At all other times, controllers should use the designated Standard ATC Positions.

CallsignRadio Name / Freq / Voice Room / TypeFrequencyType
NZCH-D_CTR Christchurch Director
129.200
nzch-d_ctr
129.200

Charts